Time;durP1;ratioP1;P1;durP2;ratioP2;P2;SDS_P1;SDS_P2;PMS_P1;PMS_P2;Temp;Humidity;BMP_temperature;BMP_pressure;BME280_temperature;BME280_humidity;BME280_pressure;Samples;Min_cycle;Max_cycle;Signal;HPM_P1;HPM_P2
2024/03/21 05:09:02;;;;;;;0.30;0.30;;;8.80;99.90;;;;;;4859184;29;20305;-62
2024/03/21 05:11:27;;;;;;;0.30;0.30;;;8.80;99.90;;;;;;4860516;29;20233;-62
2024/03/21 05:13:53;;;;;;;0.30;0.30;;;8.70;99.90;;;;;;4860477;29;20694;-63
2024/03/21 05:16:19;;;;;;;0.30;0.30;;;8.70;99.90;;;;;;4859701;29;20671;-63
2024/03/21 05:18:44;;;;;;;0.30;0.30;;;8.70;99.90;;;;;;4860412;29;20239;-64
2024/03/21 05:21:10;;;;;;;0.40;0.40;;;8.70;99.90;;;;;;4860294;29;20173;-63
2024/03/21 05:23:36;;;;;;;0.33;0.33;;;8.70;99.90;;;;;;4860273;29;20927;-63
2024/03/21 05:26:01;;;;;;;0.57;0.57;;;8.70;99.90;;;;;;4859834;29;20205;-64
2024/03/21 05:28:27;;;;;;;0.50;0.50;;;8.70;99.90;;;;;;4860418;29;20175;-64
2024/03/21 05:30:53;;;;;;;0.30;0.30;;;8.70;99.90;;;;;;4860310;29;20188;-63
2024/03/21 05:33:19;;;;;;;0.30;0.30;;;8.70;99.90;;;;;;4859090;29;20200;-63
2024/03/21 05:35:44;;;;;;;0.40;0.40;;;8.70;99.90;;;;;;4857331;29;20212;-63
2024/03/21 05:38:11;;;;;;;0.30;0.30;;;8.80;99.90;;;;;;4859758;29;20187;-63
2024/03/21 05:40:39;;;;;;;0.30;0.30;;;8.90;99.90;;;;;;4860092;29;20176;-66
2024/03/21 05:43:07;;;;;;;0.38;0.38;;;8.90;99.90;;;;;;4859364;29;20575;-64
2024/03/21 05:45:33;;;;;;;0.30;0.30;;;9.00;99.90;;;;;;4859204;29;20215;-66
2024/03/21 05:47:59;;;;;;;0.30;0.30;;;9.00;99.90;;;;;;4860083;29;20187;-63
2024/03/21 05:50:24;;;;;;;0.40;0.40;;;9.10;99.90;;;;;;4859578;29;20177;-68
2024/03/21 05:52:50;;;;;;;0.30;0.30;;;9.10;99.90;;;;;;4859768;29;20225;-64
2024/03/21 05:55:15;;;;;;;0.33;0.33;;;9.10;99.90;;;;;;4859538;29;20181;-63
2024/03/21 05:57:41;;;;;;;0.30;0.30;;;9.20;99.90;;;;;;4860441;29;20260;-63
2024/03/21 06:00:12;;;;;;;0.40;0.40;;;9.20;99.90;;;;;;4862057;29;20624;-65
2024/03/21 06:02:40;;;;;;;0.40;0.40;;;9.30;99.90;;;;;;4863539;29;20633;-63
2024/03/21 06:05:06;;;;;;;0.30;0.30;;;9.30;99.90;;;;;;4862779;29;20261;-65
2024/03/21 06:07:31;;;;;;;0.30;0.30;;;9.40;99.90;;;;;;4863081;29;20277;-63
2024/03/21 06:09:57;;;;;;;0.30;0.30;;;9.40;99.90;;;;;;4863045;29;20410;-65
2024/03/21 06:12:23;;;;;;;0.30;0.30;;;9.50;99.90;;;;;;4862651;29;20184;-64
2024/03/21 06:14:48;;;;;;;0.30;0.30;;;9.50;99.90;;;;;;4862632;29;20298;-63
2024/03/21 06:17:14;;;;;;;0.30;0.30;;;9.60;99.90;;;;;;4862815;29;20219;-63
2024/03/21 06:19:39;;;;;;;0.53;0.53;;;9.60;99.90;;;;;;4861972;29;20198;-64
2024/03/21 06:22:05;;;;;;;0.30;0.30;;;9.70;99.90;;;;;;4861679;29;20529;-63
2024/03/21 06:24:31;;;;;;;0.30;0.30;;;9.80;99.90;;;;;;4861482;29;20195;-66
2024/03/21 06:26:56;;;;;;;0.30;0.30;;;9.80;99.90;;;;;;4861352;29;20443;-63
2024/03/21 06:29:27;;;;;;;0.57;0.57;;;9.90;99.90;;;;;;4861536;29;20181;-64
2024/03/21 06:31:52;;;;;;;0.30;0.30;;;9.90;99.90;;;;;;4861658;29;20313;-65
2024/03/21 06:34:18;;;;;;;0.30;0.30;;;10.00;99.90;;;;;;4856635;29;20514;-64
2024/03/21 06:36:44;;;;;;;0.30;0.30;;;10.10;99.90;;;;;;4860123;29;20215;-62
2024/03/21 06:39:11;;;;;;;0.50;0.50;;;10.10;99.90;;;;;;4862330;29;20781;-64
2024/03/21 06:41:36;;;;;;;0.40;0.40;;;10.20;99.90;;;;;;4861559;29;20269;-64
2024/03/21 06:44:04;;;;;;;0.60;0.60;;;10.20;99.90;;;;;;4861846;29;20781;-63
2024/03/21 06:46:29;;;;;;;0.30;0.30;;;10.30;99.90;;;;;;4860716;29;20298;-62
2024/03/21 06:48:55;;;;;;;0.30;0.30;;;10.40;99.90;;;;;;4861765;29;20528;-63
2024/03/21 06:51:20;;;;;;;0.30;0.20;;;10.50;99.90;;;;;;4862228;29;20191;-63
2024/03/21 06:53:47;;;;;;;0.30;0.30;;;10.60;99.90;;;;;;4861482;29;20292;-64
2024/03/21 06:56:14;;;;;;;0.30;0.30;;;10.50;99.90;;;;;;4861533;29;20562;-63
2024/03/21 06:58:40;;;;;;;0.30;0.30;;;10.60;99.90;;;;;;4862168;29;20281;-64
2024/03/21 07:01:06;;;;;;;1.50;1.50;;;10.70;99.90;;;;;;4862216;29;20508;-62
2024/03/21 07:03:31;;;;;;;0.67;0.67;;;10.80;99.90;;;;;;4861676;29;20464;-65
2024/03/21 07:05:57;;;;;;;0.30;0.30;;;11.00;99.90;;;;;;4860314;29;20203;-63
2024/03/21 07:08:23;;;;;;;0.40;0.40;;;11.00;99.90;;;;;;4861342;29;20688;-64
2024/03/21 07:10:49;;;;;;;0.30;0.30;;;11.20;99.90;;;;;;4861810;29;20225;-63
2024/03/21 07:13:15;;;;;;;0.37;0.37;;;11.30;99.90;;;;;;4861001;29;20280;-64
2024/03/21 07:15:42;;;;;;;0.40;0.40;;;11.40;99.90;;;;;;4858606;29;20475;-64
2024/03/21 07:18:16;;;;;;;0.40;0.40;;;11.50;99.90;;;;;;4861426;29;20650;-64
2024/03/21 07:20:43;;;;;;;0.40;0.40;;;11.60;99.90;;;;;;4861509;29;20431;-64
2024/03/21 07:23:09;;;;;;;0.30;0.30;;;11.70;99.90;;;;;;4861137;29;20433;-62
2024/03/21 07:25:36;;;;;;;0.80;0.80;;;11.70;99.90;;;;;;4860902;29;20210;-64
2024/03/21 07:28:03;;;;;;;0.40;0.40;;;11.70;99.90;;;;;;4861131;29;20452;-63
2024/03/21 07:30:29;;;;;;;0.43;0.43;;;11.70;99.90;;;;;;4861186;29;20439;-62
2024/03/21 07:32:55;;;;;;;0.37;0.37;;;11.70;99.90;;;;;;4861979;29;20456;-61
2024/03/21 07:35:21;;;;;;;0.30;0.30;;;11.80;99.90;;;;;;4861184;29;20535;-60
2024/03/21 07:37:47;;;;;;;0.30;0.30;;;11.80;99.90;;;;;;4861327;29;20466;-62
2024/03/21 07:40:13;;;;;;;0.70;0.70;;;11.80;99.90;;;;;;4860168;29;20179;-63
2024/03/21 07:42:38;;;;;;;0.50;0.50;;;12.00;99.90;;;;;;4860943;29;20420;-62
2024/03/21 07:45:08;;;;;;;0.30;0.20;;;12.20;99.90;;;;;;4860762;29;20192;-62
2024/03/21 07:47:34;;;;;;;0.40;0.40;;;12.40;99.90;;;;;;4859866;29;20203;-64
2024/03/21 07:49:59;;;;;;;0.30;0.30;;;12.60;99.90;;;;;;4861129;29;20420;-62
2024/03/21 07:52:25;;;;;;;0.50;0.50;;;12.80;99.90;;;;;;4861148;29;20464;-62
2024/03/21 07:54:51;;;;;;;0.30;0.30;;;12.90;99.90;;;;;;4860868;29;20283;-63
2024/03/21 07:57:18;;;;;;;0.40;0.40;;;13.10;99.90;;;;;;4861148;29;20228;-63
2024/03/21 07:59:44;;;;;;;0.30;0.30;;;13.20;99.90;;;;;;4860899;29;20236;-64
2024/03/21 08:02:10;;;;;;;0.40;0.40;;;13.20;99.90;;;;;;4865938;29;20421;-64
2024/03/21 08:04:35;;;;;;;0.30;0.20;;;13.30;99.90;;;;;;4860628;29;20461;-62
2024/03/21 08:07:01;;;;;;;0.30;0.30;;;13.30;99.90;;;;;;4860744;29;20694;-65
2024/03/21 08:09:27;;;;;;;0.30;0.30;;;13.40;99.90;;;;;;4860931;29;20177;-60
2024/03/21 08:11:53;;;;;;;0.30;0.30;;;13.60;99.90;;;;;;4861147;29;20504;-63
2024/03/21 08:14:18;;;;;;;0.40;0.40;;;13.70;99.90;;;;;;4860899;29;20188;-65
2024/03/21 08:16:44;;;;;;;0.50;0.50;;;13.80;99.90;;;;;;4860465;29;20206;-62
2024/03/21 08:19:10;;;;;;;0.30;0.30;;;13.90;99.90;;;;;;4860748;29;20544;-63
2024/03/21 08:21:35;;;;;;;0.60;0.60;;;13.90;99.90;;;;;;4860316;29;20480;-63
2024/03/21 08:24:01;;;;;;;0.30;0.30;;;13.90;99.90;;;;;;4860702;29;20349;-62
2024/03/21 08:26:27;;;;;;;0.53;0.53;;;14.00;99.90;;;;;;4860328;29;20216;-63
2024/03/21 08:28:52;;;;;;;0.30;0.30;;;14.00;99.90;;;;;;4860772;29;20258;-65
2024/03/21 08:31:18;;;;;;;0.30;0.30;;;14.20;99.90;;;;;;4860579;29;20270;-64
2024/03/21 08:33:44;;;;;;;0.30;0.30;;;14.60;99.90;;;;;;4860580;29;20196;-64
2024/03/21 08:36:09;;;;;;;0.30;0.20;;;15.00;99.90;;;;;;4860172;29;20310;-63
2024/03/21 08:38:35;;;;;;;0.30;0.30;;;15.30;99.90;;;;;;4860915;29;20207;-63
2024/03/21 08:41:01;;;;;;;0.30;0.30;;;15.60;99.90;;;;;;4860758;29;20543;-62
2024/03/21 08:43:27;;;;;;;0.30;0.30;;;15.80;99.90;;;;;;4860202;29;20232;-62
2024/03/21 08:45:53;;;;;;;0.30;0.30;;;15.80;99.90;;;;;;4859832;29;20444;-64
2024/03/21 08:48:19;;;;;;;0.37;0.37;;;15.80;99.90;;;;;;4860246;29;20184;-64
2024/03/21 08:50:47;;;;;;;0.30;0.30;;;15.70;99.90;;;;;;4860410;29;20794;-64
2024/03/21 08:53:14;;;;;;;0.30;0.30;;;15.50;99.90;;;;;;4860333;29;20588;-64
2024/03/21 08:55:40;;;;;;;0.30;0.30;;;15.30;99.90;;;;;;4859665;29;20878;-63
2024/03/21 08:58:06;;;;;;;0.50;0.50;;;15.00;99.90;;;;;;4860069;29;20432;-64
2024/03/21 09:00:32;;;;;;;0.40;0.40;;;14.90;99.90;;;;;;4859904;29;20655;-65
2024/03/21 09:02:59;;;;;;;0.30;0.20;;;14.90;99.90;;;;;;4860086;29;20219;-63
2024/03/21 09:05:24;;;;;;;0.63;0.63;;;14.90;99.90;;;;;;4859529;29;20444;-63
2024/03/21 09:07:50;;;;;;;0.30;0.20;;;15.10;99.90;;;;;;4860214;29;21010;-63
2024/03/21 09:10:16;;;;;;;0.37;0.37;;;15.40;99.90;;;;;;4860536;29;20188;-64
2024/03/21 09:12:42;;;;;;;0.30;0.27;;;15.50;99.90;;;;;;4859339;29;20531;-63
2024/03/21 09:15:18;;;;;;;0.33;0.33;;;15.60;99.90;;;;;;4859754;29;20433;-63
2024/03/21 09:17:44;;;;;;;0.30;0.30;;;15.70;99.90;;;;;;4859061;29;20935;-68
2024/03/21 09:20:10;;;;;;;0.40;0.40;;;16.00;99.90;;;;;;4860459;29;20413;-65
2024/03/21 09:22:36;;;;;;;0.30;0.30;;;16.70;99.90;;;;;;4860738;29;20428;-66
2024/03/21 09:25:03;;;;;;;0.30;0.30;;;17.80;99.90;;;;;;4860390;29;20181;-63
2024/03/21 09:27:28;;;;;;;0.30;0.30;;;19.00;99.90;;;;;;4860418;29;20452;-64
2024/03/21 09:29:54;;;;;;;0.63;0.63;;;19.50;99.70;;;;;;4860507;29;20784;-70
2024/03/21 09:32:20;;;;;;;0.30;0.20;;;19.90;99.90;;;;;;4861732;29;20184;-69
2024/03/21 09:34:47;;;;;;;0.50;0.50;;;20.40;99.50;;;;;;4863355;29;20182;-70
2024/03/21 09:37:14;;;;;;;0.40;0.40;;;21.30;98.30;;;;;;4862125;29;20451;-70
2024/03/21 09:39:39;;;;;;;0.30;0.30;;;21.50;96.50;;;;;;4862452;29;20423;-65
2024/03/21 09:42:07;;;;;;;0.50;0.50;;;21.70;96.30;;;;;;4863798;29;20915;-64
2024/03/21 09:44:34;;;;;;;0.40;0.40;;;22.10;96.50;;;;;;4862895;29;20603;-65
2024/03/21 09:47:01;;;;;;;0.30;0.20;;;22.30;95.40;;;;;;4862900;29;20415;-64
2024/03/21 09:49:28;;;;;;;0.30;0.30;;;22.00;95.10;;;;;;4862519;29;21135;-64
2024/03/21 09:51:54;;;;;;;0.30;0.30;;;21.40;95.70;;;;;;4863118;29;20420;-65
2024/03/21 09:54:20;;;;;;;0.40;0.40;;;20.80;96.90;;;;;;4862078;29;20421;-64
2024/03/21 09:56:46;;;;;;;0.30;0.30;;;20.20;97.90;;;;;;4862931;29;20446;-63
2024/03/21 09:59:13;;;;;;;0.30;0.30;;;19.90;98.50;;;;;;4860067;29;20192;-63
2024/03/21 10:01:38;;;;;;;0.90;0.63;;;19.50;99.20;;;;;;4856859;29;20421;-61
2024/03/21 10:04:04;;;;;;;0.30;0.30;;;19.20;99.60;;;;;;4863022;29;20436;-63
2024/03/21 10:06:41;;;;;;;0.37;0.33;;;19.00;99.90;;;;;;4862752;29;20212;-61
2024/03/21 10:09:07;;;;;;;0.40;0.40;;;19.20;99.90;;;;;;4861125;29;20575;-60
2024/03/21 10:11:34;;;;;;;1.40;1.03;;;19.30;99.90;;;;;;4863091;29;20454;-63
2024/03/21 10:14:00;;;;;;;0.43;0.43;;;19.20;99.40;;;;;;4862685;29;20436;-62
2024/03/21 10:16:28;;;;;;;0.30;0.30;;;19.00;99.60;;;;;;4857196;29;20440;-63
2024/03/21 10:18:54;;;;;;;0.30;0.30;;;19.00;99.50;;;;;;4862690;29;20198;-66
2024/03/21 10:21:22;;;;;;;0.30;0.30;;;19.10;99.70;;;;;;4861826;29;20422;-62
2024/03/21 10:23:47;;;;;;;0.50;0.43;;;19.10;99.70;;;;;;4862695;29;20259;-62
2024/03/21 10:26:14;;;;;;;0.30;0.30;;;19.10;99.40;;;;;;4862459;29;20874;-62
2024/03/21 10:28:41;;;;;;;1.03;1.03;;;19.30;99.90;;;;;;4862627;29;20703;-63
2024/03/21 10:31:13;;;;;;;0.30;0.30;;;19.70;99.90;;;;;;4862611;29;20403;-62
2024/03/21 10:33:39;;;;;;;0.50;0.50;;;20.20;98.80;;;;;;4863108;29;20420;-63
2024/03/21 10:36:09;;;;;;;0.40;0.40;;;20.80;98.40;;;;;;4862234;29;20472;-64
2024/03/21 10:38:34;;;;;;;0.30;0.27;;;21.30;98.00;;;;;;4862727;29;20417;-62
2024/03/21 10:41:06;;;;;;;0.40;0.40;;;21.90;97.70;;;;;;4862425;29;20427;-62
2024/03/21 10:43:34;;;;;;;0.30;0.30;;;22.60;96.50;;;;;;4861500;29;20180;-62
2024/03/21 10:46:00;;;;;;;0.40;0.37;;;23.30;95.60;;;;;;4886982;29;20779;-63
2024/03/21 10:48:32;;;;;;;0.70;0.50;;;23.80;93.90;;;;;;4861703;29;20415;-62
2024/03/21 10:51:11;;;;;;;0.40;0.37;;;24.10;93.80;;;;;;4859455;29;20441;-62
2024/03/21 10:53:37;;;;;;;0.30;0.30;;;24.40;93.30;;;;;;4857218;29;20455;-63
2024/03/21 10:56:09;;;;;;;0.67;0.67;;;24.60;92.50;;;;;;4856503;29;20563;-62
2024/03/21 10:58:44;;;;;;;0.40;0.40;;;25.10;92.10;;;;;;4856794;29;20177;-61
2024/03/21 11:01:10;;;;;;;1.17;0.63;;;25.30;91.80;;;;;;4862020;29;21010;-62
2024/03/21 11:03:47;;;;;;;0.40;0.40;;;25.40;90.90;;;;;;4862345;29;20431;-62
2024/03/21 11:06:13;;;;;;;0.30;0.30;;;25.50;91.10;;;;;;4859628;29;20296;-62
2024/03/21 11:08:53;;;;;;;0.50;0.50;;;25.90;90.50;;;;;;4852595;29;20808;-62
2024/03/21 11:11:22;;;;;;;0.37;0.37;;;25.90;90.50;;;;;;4861910;29;20422;-58
2024/03/21 11:13:48;;;;;;;0.63;0.63;;;26.10;89.90;;;;;;4860979;29;20396;-59
2024/03/21 11:16:13;;;;;;;0.43;0.43;;;26.00;88.90;;;;;;4861608;29;20511;-57
2024/03/21 11:18:40;;;;;;;0.60;0.60;;;25.50;89.20;;;;;;4861929;29;20623;-62
2024/03/21 11:21:11;;;;;;;0.30;0.27;;;24.40;89.40;;;;;;4862113;29;20562;-61
2024/03/21 11:23:39;;;;;;;0.30;0.30;;;23.30;90.40;;;;;;4861932;29;20408;-62
2024/03/21 11:26:07;;;;;;;1.33;1.23;;;22.30;91.90;;;;;;4860846;29;20455;-62
2024/03/21 11:28:33;;;;;;;0.37;0.33;;;21.60;92.80;;;;;;4861474;29;20407;-62
2024/03/21 11:30:59;;;;;;;0.77;0.77;;;21.10;94.10;;;;;;4861840;29;20391;-63
2024/03/21 11:33:25;;;;;;;0.30;0.30;;;20.80;94.60;;;;;;4861869;29;20467;-63
2024/03/21 11:35:52;;;;;;;0.53;0.53;;;20.80;95.10;;;;;;4860975;29;20508;-61
2024/03/21 11:38:17;;;;;;;0.73;0.73;;;20.80;95.20;;;;;;4861995;29;20508;-62
2024/03/21 11:40:43;;;;;;;0.30;0.30;;;20.80;95.80;;;;;;4861169;29;20429;-64
2024/03/21 11:43:09;;;;;;;0.47;0.47;;;20.90;94.90;;;;;;4860950;29;20189;-65
2024/03/21 11:45:35;;;;;;;1.27;0.57;;;20.90;94.70;;;;;;4860772;29;20204;-62
2024/03/21 11:48:13;;;;;;;0.97;0.97;;;20.80;95.40;;;;;;4861152;29;20388;-62
2024/03/21 11:50:39;;;;;;;0.30;0.30;;;20.60;95.50;;;;;;4861823;29;20442;-63
2024/03/21 11:53:06;;;;;;;0.40;0.40;;;20.50;95.70;;;;;;4861441;29;20407;-62
2024/03/21 11:55:31;;;;;;;0.50;0.50;;;20.30;95.20;;;;;;4859971;29;20552;-61
2024/03/21 11:57:57;;;;;;;0.40;0.40;;;20.10;95.40;;;;;;4861001;29;20567;-62
2024/03/21 12:00:24;;;;;;;0.40;0.40;;;20.00;95.90;;;;;;4861151;29;20176;-62
2024/03/21 12:02:53;;;;;;;0.40;0.40;;;20.00;95.80;;;;;;4860625;29;20272;-62
2024/03/21 12:05:19;;;;;;;2.20;1.23;;;20.00;95.70;;;;;;4860956;29;20398;-62
2024/03/21 12:07:45;;;;;;;0.30;0.30;;;20.10;96.00;;;;;;4860461;29;20762;-61
2024/03/21 12:10:12;;;;;;;0.30;0.30;;;20.10;96.30;;;;;;4860946;29;20417;-62
2024/03/21 12:12:38;;;;;;;0.30;0.20;;;20.10;96.10;;;;;;4859604;29;20476;-62
2024/03/21 12:15:05;;;;;;;0.30;0.30;;;20.10;96.50;;;;;;4860918;29;20465;-61
2024/03/21 12:17:33;;;;;;;0.50;0.50;;;20.00;96.20;;;;;;4860440;29;20819;-61
2024/03/21 12:20:00;;;;;;;0.40;0.40;;;20.00;96.30;;;;;;4860711;29;20478;-62
2024/03/21 12:22:28;;;;;;;0.90;0.90;;;19.90;96.30;;;;;;4860837;29;20396;-62
2024/03/21 12:24:54;;;;;;;0.30;0.30;;;19.80;96.00;;;;;;4857411;29;20450;-62
2024/03/21 12:27:20;;;;;;;0.50;0.50;;;19.60;96.20;;;;;;4860679;29;20837;-63
2024/03/21 12:29:47;;;;;;;0.40;0.40;;;19.30;96.60;;;;;;4859564;29;20456;-62
2024/03/21 12:32:14;;;;;;;0.40;0.40;;;19.20;96.50;;;;;;4860090;29;20597;-63
2024/03/21 12:34:41;;;;;;;0.70;0.70;;;19.00;96.60;;;;;;4860333;29;20763;-63
2024/03/21 12:37:08;;;;;;;0.30;0.30;;;18.80;97.50;;;;;;4860151;29;20446;-62
2024/03/21 12:39:35;;;;;;;0.40;0.40;;;18.80;97.90;;;;;;4860056;29;20475;-62
2024/03/21 12:42:02;;;;;;;0.67;0.40;;;18.90;97.80;;;;;;4860781;29;20383;-64
2024/03/21 12:44:28;;;;;;;1.70;0.87;;;19.00;97.70;;;;;;4859651;29;20954;-63
2024/03/21 12:46:54;;;;;;;2.27;1.60;;;19.00;97.80;;;;;;4858626;29;20441;-62
2024/03/21 12:49:19;;;;;;;0.40;0.40;;;19.20;97.00;;;;;;4860562;29;20425;-63
2024/03/21 12:51:45;;;;;;;0.30;0.30;;;19.30;97.10;;;;;;4860136;29;20189;-63
2024/03/21 12:54:11;;;;;;;0.40;0.30;;;19.30;96.80;;;;;;4859962;29;20188;-65
2024/03/21 12:56:36;;;;;;;0.40;0.40;;;19.40;96.80;;;;;;4859838;29;20216;-63
2024/03/21 12:59:02;;;;;;;0.67;0.67;;;19.30;96.10;;;;;;4858850;29;20183;-64
2024/03/21 13:01:28;;;;;;;1.37;1.37;;;19.20;96.60;;;;;;4859423;29;20439;-62
2024/03/21 13:03:53;;;;;;;0.70;0.70;;;19.10;96.60;;;;;;4860510;29;20173;-62
2024/03/21 13:06:19;;;;;;;0.30;0.30;;;19.10;96.80;;;;;;4859932;29;20290;-62
2024/03/21 13:08:44;;;;;;;0.60;0.57;;;19.10;96.70;;;;;;4864016;29;20230;-62
2024/03/21 13:11:10;;;;;;;0.30;0.30;;;19.20;96.70;;;;;;4864165;29;20263;-62
2024/03/21 13:13:37;;;;;;;0.30;0.30;;;19.20;95.90;;;;;;4863737;29;20237;-62
2024/03/21 13:16:04;;;;;;;1.27;1.17;;;19.20;95.90;;;;;;4863441;29;20212;-62
2024/03/21 13:18:29;;;;;;;0.30;0.30;;;19.30;95.90;;;;;;4863860;29;20461;-61
2024/03/21 13:20:55;;;;;;;0.50;0.50;;;19.30;96.20;;;;;;4864400;29;20432;-62
2024/03/21 13:23:21;;;;;;;0.40;0.40;;;19.20;96.30;;;;;;4863982;29;20228;-61
2024/03/21 13:25:47;;;;;;;0.50;0.50;;;19.20;96.80;;;;;;4863595;29;20556;-61
2024/03/21 13:28:13;;;;;;;0.80;0.80;;;18.80;97.20;;;;;;4863932;29;20529;-61
2024/03/21 13:30:39;;;;;;;0.77;0.77;;;18.50;97.80;;;;;;4863874;29;20500;-62
2024/03/21 13:33:05;;;;;;;0.57;0.57;;;18.10;98.50;;;;;;4863902;29;20655;-62
2024/03/21 13:35:31;;;;;;;1.63;0.60;;;17.90;99.10;;;;;;4863369;29;20772;-62
2024/03/21 13:37:56;;;;;;;0.93;0.90;;;17.60;99.20;;;;;;4863749;29;20412;-61
2024/03/21 13:40:22;;;;;;;0.53;0.53;;;17.40;99.90;;;;;;4863431;29;20470;-62
2024/03/21 13:42:48;;;;;;;0.97;0.97;;;17.30;99.90;;;;;;4863815;29;20180;-61
2024/03/21 13:45:14;;;;;;;0.40;0.40;;;17.30;99.90;;;;;;4862614;29;20271;-64
2024/03/21 13:47:40;;;;;;;0.43;0.43;;;17.30;99.90;;;;;;4863614;29;20520;-66
2024/03/21 13:50:10;;;;;;;0.33;0.30;;;17.30;99.90;;;;;;4863409;29;20174;-60
2024/03/21 13:52:36;;;;;;;0.43;0.43;;;17.30;99.90;;;;;;4863303;29;20417;-61
2024/03/21 13:55:02;;;;;;;0.40;0.40;;;17.20;99.90;;;;;;4862703;29;20402;-61
2024/03/21 13:57:34;;;;;;;1.37;0.97;;;17.10;99.90;;;;;;4877518;29;20483;-61
2024/03/21 14:00:04;;;;;;;0.73;0.73;;;17.00;99.90;;;;;;4875702;29;20420;-64
2024/03/21 14:02:33;;;;;;;0.97;0.90;;;16.90;99.90;;;;;;4863060;29;20417;-63
2024/03/21 14:05:02;;;;;;;1.07;0.60;;;17.00;99.90;;;;;;4862883;29;20438;-64
2024/03/21 14:07:28;;;;;;;0.30;0.30;;;17.00;99.90;;;;;;4861867;29;20472;-63
2024/03/21 14:09:54;;;;;;;0.50;0.50;;;17.00;99.90;;;;;;4861623;29;21288;-63
2024/03/21 14:12:20;;;;;;;1.00;1.00;;;17.00;99.90;;;;;;4869598;29;20650;-64
2024/03/21 14:14:45;;;;;;;0.83;0.83;;;17.00;99.90;;;;;;4863176;29;20417;-60
2024/03/21 14:17:11;;;;;;;0.30;0.30;;;17.00;99.90;;;;;;4860732;29;20439;-61
2024/03/21 14:19:37;;;;;;;0.93;0.93;;;17.10;99.90;;;;;;4858892;29;20173;-62
2024/03/21 14:22:03;;;;;;;0.30;0.30;;;17.00;99.90;;;;;;4861519;29;20176;-64
2024/03/21 14:24:28;;;;;;;0.90;0.90;;;17.00;99.90;;;;;;4861864;29;20184;-61
2024/03/21 14:26:54;;;;;;;0.30;0.30;;;17.00;99.90;;;;;;4862858;29;20412;-61
2024/03/21 14:29:20;;;;;;;1.13;1.03;;;17.00;99.90;;;;;;4862475;29;20526;-63
2024/03/21 14:31:45;;;;;;;0.40;0.40;;;17.00;99.90;;;;;;4863599;29;20476;-62
2024/03/21 14:34:13;;;;;;;0.50;0.50;;;17.10;99.90;;;;;;4877222;29;20177;-62
2024/03/21 14:36:41;;;;;;;0.33;0.33;;;17.20;99.80;;;;;;4862382;29;20458;-61
2024/03/21 14:39:07;;;;;;;2.00;0.80;;;17.30;99.40;;;;;;4861593;29;20390;-60
2024/03/21 14:41:33;;;;;;;0.40;0.40;;;17.40;99.40;;;;;;4862994;29;20420;-60
2024/03/21 14:43:58;;;;;;;1.13;0.80;;;17.50;98.70;;;;;;4862631;29;20429;-61
2024/03/21 14:46:24;;;;;;;0.30;0.30;;;17.50;98.10;;;;;;4862277;29;20428;-60
2024/03/21 14:48:50;;;;;;;0.97;0.97;;;17.40;98.10;;;;;;4862520;29;20184;-60
2024/03/21 14:51:15;;;;;;;1.60;1.10;;;17.30;98.20;;;;;;4862541;29;20384;-61
2024/03/21 14:53:41;;;;;;;0.37;0.37;;;17.20;97.50;;;;;;4862746;29;20184;-61
2024/03/21 14:56:07;;;;;;;0.30;0.30;;;17.20;97.70;;;;;;4861430;29;20218;-62
2024/03/21 14:58:33;;;;;;;1.37;1.27;;;17.20;97.20;;;;;;4861426;29;20177;-62
2024/03/21 15:00:59;;;;;;;0.30;0.30;;;17.20;96.10;;;;;;4862368;29;20287;-62
2024/03/21 15:03:25;;;;;;;0.50;0.50;;;17.00;95.90;;;;;;4861807;29;20513;-62
2024/03/21 15:05:51;;;;;;;0.37;0.37;;;16.80;96.20;;;;;;4861655;29;20251;-62
2024/03/21 15:08:17;;;;;;;0.30;0.20;;;16.70;95.70;;;;;;4862217;29;20467;-61
2024/03/21 15:10:42;;;;;;;0.30;0.30;;;16.60;96.40;;;;;;4862204;29;20691;-60
2024/03/21 15:13:08;;;;;;;0.30;0.30;;;16.50;96.30;;;;;;4861491;29;20198;-61
2024/03/21 15:15:35;;;;;;;0.30;0.30;;;16.40;96.60;;;;;;4859868;29;20199;-60
2024/03/21 15:18:01;;;;;;;6.33;0.97;;;16.40;96.60;;;;;;4862004;29;20182;-60
2024/03/21 15:20:27;;;;;;;0.30;0.30;;;16.40;96.60;;;;;;4861768;29;20881;-60
2024/03/21 15:22:52;;;;;;;1.20;1.20;;;16.30;96.70;;;;;;4861743;29;20481;-60
2024/03/21 15:25:19;;;;;;;0.30;0.30;;;16.30;97.00;;;;;;4861349;29;20272;-61
2024/03/21 15:27:45;;;;;;;0.30;0.30;;;16.30;97.10;;;;;;4860256;29;20194;-62
2024/03/21 15:30:12;;;;;;;0.40;0.40;;;16.40;96.80;;;;;;4860086;29;20889;-61
2024/03/21 15:32:38;;;;;;;0.53;0.53;;;16.40;96.10;;;;;;4861695;29;20183;-61
2024/03/21 15:35:03;;;;;;;0.30;0.30;;;16.40;96.40;;;;;;4861074;29;20427;-62
2024/03/21 15:37:29;;;;;;;0.77;0.77;;;16.40;96.50;;;;;;4861284;29;20435;-61
2024/03/21 15:39:55;;;;;;;0.30;0.30;;;16.40;96.80;;;;;;4861445;29;20647;-61
2024/03/21 15:42:20;;;;;;;0.30;0.30;;;16.40;96.90;;;;;;4861338;29;20895;-62
2024/03/21 15:44:47;;;;;;;0.40;0.40;;;16.40;97.30;;;;;;4860480;29;20204;-62
2024/03/21 15:47:13;;;;;;;0.30;0.30;;;16.30;96.90;;;;;;4860770;29;20220;-61
2024/03/21 15:49:39;;;;;;;0.40;0.40;;;16.30;96.90;;;;;;4861321;29;20455;-61
2024/03/21 15:52:05;;;;;;;0.83;0.83;;;16.40;96.70;;;;;;4861720;29;20470;-62
2024/03/21 15:54:31;;;;;;;0.57;0.57;;;16.40;97.10;;;;;;4860646;29;20198;-64
2024/03/21 15:56:56;;;;;;;0.30;0.30;;;16.40;97.10;;;;;;4860805;29;20455;-62
2024/03/21 15:59:22;;;;;;;0.30;0.30;;;16.40;97.70;;;;;;4861306;29;20185;-61
2024/03/21 16:01:47;;;;;;;0.30;0.30;;;16.40;97.70;;;;;;4861073;29;20177;-62
2024/03/21 16:04:13;;;;;;;0.40;0.40;;;16.40;97.40;;;;;;4861400;29;20216;-62
2024/03/21 16:06:39;;;;;;;0.53;0.53;;;16.40;97.70;;;;;;4860634;29;20292;-63
2024/03/21 16:09:07;;;;;;;0.30;0.27;;;16.40;97.50;;;;;;4860830;29;20198;-62
2024/03/21 16:11:36;;;;;;;0.33;0.33;;;16.30;97.40;;;;;;4860974;29;20199;-61
2024/03/21 16:14:01;;;;;;;0.37;0.37;;;16.30;97.60;;;;;;4861227;29;20501;-62
2024/03/21 16:16:27;;;;;;;0.50;0.50;;;16.20;97.90;;;;;;4860242;29;20544;-62
2024/03/21 16:18:52;;;;;;;0.70;0.70;;;16.10;97.90;;;;;;4861013;29;20240;-62
2024/03/21 16:21:18;;;;;;;0.40;0.40;;;16.00;97.90;;;;;;4860941;29;20186;-63
2024/03/21 16:23:43;;;;;;;0.30;0.30;;;15.90;98.20;;;;;;4860967;29;20626;-63
2024/03/21 16:26:09;;;;;;;0.40;0.40;;;15.80;98.40;;;;;;4860490;29;20296;-62
2024/03/21 16:28:35;;;;;;;0.30;0.30;;;15.70;98.50;;;;;;4861043;29;20662;-61
2024/03/21 16:31:02;;;;;;;0.40;0.40;;;15.60;98.60;;;;;;4860493;29;20525;-61
2024/03/21 16:33:28;;;;;;;0.43;0.43;;;15.60;98.80;;;;;;4860767;29;20196;-62
2024/03/21 16:35:54;;;;;;;0.50;0.50;;;15.50;99.00;;;;;;4860559;29;20946;-61
2024/03/21 16:38:21;;;;;;;0.30;0.30;;;15.40;99.20;;;;;;4860745;29;20462;-61
2024/03/21 16:40:47;;;;;;;0.30;0.30;;;15.40;99.40;;;;;;4860564;29;20176;-61
2024/03/21 16:43:13;;;;;;;0.30;0.30;;;15.30;99.60;;;;;;4859941;29;20414;-61
2024/03/21 16:45:38;;;;;;;0.30;0.30;;;15.30;99.80;;;;;;4860167;29;20997;-62
2024/03/21 16:48:05;;;;;;;0.30;0.30;;;15.20;99.90;;;;;;4860853;29;20185;-61
2024/03/21 16:50:32;;;;;;;0.30;0.30;;;15.10;99.90;;;;;;4860487;29;20561;-62
2024/03/21 16:52:57;;;;;;;0.30;0.30;;;15.10;99.90;;;;;;4860482;29;20443;-61
2024/03/21 16:55:24;;;;;;;0.47;0.47;;;15.00;99.90;;;;;;4860002;29;20429;-61
2024/03/21 16:57:53;;;;;;;0.40;0.40;;;15.00;99.90;;;;;;4860377;29;20252;-61
2024/03/21 17:00:20;;;;;;;0.30;0.30;;;14.90;99.90;;;;;;4860568;29;20520;-61
2024/03/21 17:02:46;;;;;;;0.60;0.60;;;14.80;99.90;;;;;;4860623;29;20483;-62
2024/03/21 17:05:11;;;;;;;0.30;0.30;;;14.70;99.90;;;;;;4859946;29;20461;-61
2024/03/21 17:07:38;;;;;;;0.50;0.50;;;14.70;99.90;;;;;;4860209;29;20433;-62
2024/03/21 17:10:05;;;;;;;0.50;0.50;;;14.50;99.90;;;;;;4860406;29;20237;-62
2024/03/21 17:12:31;;;;;;;0.40;0.40;;;14.50;99.90;;;;;;4859986;29;20438;-63
2024/03/21 17:14:56;;;;;;;0.90;0.90;;;14.40;99.90;;;;;;4860025;29;20445;-62
2024/03/21 17:17:22;;;;;;;0.30;0.30;;;14.30;99.90;;;;;;4860254;29;20510;-62
2024/03/21 17:19:48;;;;;;;0.30;0.30;;;14.30;99.90;;;;;;4859949;29;20186;-62
2024/03/21 17:22:13;;;;;;;0.30;0.30;;;14.20;99.90;;;;;;4860235;29;20188;-62
2024/03/21 17:24:39;;;;;;;0.30;0.30;;;14.10;99.90;;;;;;4859981;29;20199;-61
2024/03/21 17:27:05;;;;;;;0.30;0.30;;;14.10;99.90;;;;;;4860189;29;20196;-62
2024/03/21 17:29:30;;;;;;;0.50;0.40;;;14.10;99.90;;;;;;4860166;29;20199;-62
2024/03/21 17:31:56;;;;;;;0.57;0.57;;;14.00;99.90;;;;;;4860339;29;20177;-61
2024/03/21 17:34:22;;;;;;;1.17;1.13;;;13.90;99.90;;;;;;4859928;29;20420;-63
2024/03/21 17:36:47;;;;;;;0.40;0.40;;;13.90;99.90;;;;;;4860104;29;20223;-61
2024/03/21 17:39:13;;;;;;;0.30;0.30;;;13.80;99.90;;;;;;4860184;29;20646;-61
2024/03/21 17:41:38;;;;;;;0.40;0.40;;;13.70;99.90;;;;;;4860072;29;20188;-61
2024/03/21 17:44:04;;;;;;;0.30;0.23;;;13.70;99.90;;;;;;4860038;29;20619;-61
2024/03/21 17:46:31;;;;;;;0.30;0.30;;;13.60;99.90;;;;;;4859330;29;20705;-62
2024/03/21 17:48:57;;;;;;;0.30;0.30;;;13.60;99.90;;;;;;4858477;29;20415;-62
2024/03/21 17:51:24;;;;;;;0.40;0.40;;;13.50;99.90;;;;;;4859790;29;20439;-61